Time;durP1;ratioP1;P1;durP2;ratioP2;P2;SDS_P1;SDS_P2;PMS_P1;PMS_P2;Temp;Humidity;BMP_temperature;BMP_pressure;BME280_temperature;BME280_humidity;BME280_pressure;Samples;Min_cycle;Max_cycle;Signal;HPM_P1;HPM_P2
2021/08/22 00:00:09;;;;;;;7.30;6.60;;;18.30;99.90;;;;;;6213799;23;20442;-89
2021/08/22 00:02:36;;;;;;;7.07;6.37;;;;;;;;;;6211802;23;20522;-88
2021/08/22 00:05:04;;;;;;;10.23;7.50;;;;;;;;;;6217098;23;20396;-89
2021/08/22 00:07:31;;;;;;;8.13;7.33;;;;;;;;;;6217356;23;20426;-88
2021/08/22 00:09:58;;;;;;;7.37;6.70;;;;;;;;;;6211558;23;20450;-88
2021/08/22 00:12:25;;;;;;;7.17;6.47;;;;;;;;;;6220776;23;20443;-87
2021/08/22 00:14:52;;;;;;;7.77;7.07;;;;;;;;;;6217574;23;20879;-89
2021/08/22 00:17:20;;;;;;;7.93;7.07;;;19.70;99.90;;;;;;6218339;23;20395;-89
2021/08/22 00:19:48;;;;;;;6.00;5.40;;;;;;;;;;6222724;23;20410;-88
2021/08/22 00:22:15;;;;;;;4.90;4.40;;;;;;;;;;6220616;23;20400;-94
2021/08/22 00:24:42;;;;;;;4.40;3.90;;;;;;;;;;6225145;23;20418;-91
2021/08/22 00:27:09;;;;;;;8.83;5.30;;;;;;;;;;6225633;23;20415;-91
2021/08/22 00:29:37;;;;;;;4.73;3.67;;;;;;;;;;6230951;23;20402;-93
2021/08/22 00:32:11;;;;;;;6.00;3.17;;;17.40;99.90;;;;;;6221792;23;20662;-92
2021/08/22 00:34:40;;;;;;;3.10;2.10;;;17.00;99.90;;;;;;6227855;23;20437;-90
2021/08/22 00:37:08;;;;;;;3.00;2.10;;;;;;;;;;6221294;23;20411;-91
2021/08/22 00:39:35;;;;;;;4.67;2.57;;;;;;;;;;6221217;23;20434;-92
2021/08/22 00:42:02;;;;;;;8.60;3.33;;;;;;;;;;6218680;23;20395;-92
2021/08/22 00:44:29;;;;;;;3.90;3.20;;;;;;;;;;6218172;23;20412;-93
2021/08/22 00:46:58;;;;;;;5.80;3.13;;;16.20;99.90;;;;;;6217551;23;20434;-93
2021/08/22 00:49:25;;;;;;;2.73;2.33;;;;;;;;;;6218997;23;20434;-91
2021/08/22 00:51:54;;;;;;;4.17;2.37;;;;;;;;;;6218539;23;20439;-92
2021/08/22 00:54:22;;;;;;;3.57;3.00;;;;;;;;;;6211408;23;20415;-92
2021/08/22 00:56:49;;;;;;;3.93;2.53;;;;;;;;;;6218435;23;20497;-92
2021/08/22 00:59:18;;;;;;;5.33;3.20;;;16.30;99.90;;;;;;6217483;23;20407;-94
2021/08/22 01:01:46;;;;;;;6.47;3.80;;;;;;;;;;6217792;23;20418;-92
2021/08/22 01:04:18;;;;;;;3.17;2.87;;;16.40;99.90;;;;;;6217583;23;20411;-94
2021/08/22 01:06:54;;;;;;;5.87;3.27;;;;;;;;;;6217485;23;20441;-93
2021/08/22 01:09:27;;;;;;;6.23;3.10;;;16.30;99.90;;;;;;6216206;23;20410;-93
2021/08/22 01:11:57;;;;;;;4.60;3.03;;;;;;;;;;6217471;23;20461;-93
2021/08/22 01:14:28;;;;;;;6.47;3.63;;;;;;;;;;6217426;23;20407;-92
2021/08/22 01:16:56;;;;;;;10.83;4.17;;;;;;;;;;6216734;23;20419;-92
2021/08/22 01:19:39;;;;;;;5.10;3.60;;;16.40;99.90;;;;;;6217311;23;20391;-94
2021/08/22 01:22:08;;;;;;;5.23;3.30;;;16.40;99.90;;;;;;6211012;23;20720;-94
2021/08/22 01:24:38;;;;;;;5.10;4.00;;;;;;;;;;6209468;23;20440;-94
2021/08/22 01:27:07;;;;;;;3.93;3.43;;;16.40;99.90;;;;;;6217177;23;20824;-93
2021/08/22 01:29:40;;;;;;;6.33;3.60;;;;;;;;;;6206552;23;20418;-92
2021/08/22 01:32:09;;;;;;;5.83;3.87;;;16.20;99.90;;;;;;6217321;23;20451;-92
2021/08/22 01:34:37;;;;;;;7.77;3.77;;;;;;;;;;6206901;23;20392;-92
2021/08/22 01:37:05;;;;;;;4.17;3.40;;;;;;;;;;6216844;23;20415;-93
2021/08/22 01:39:33;;;;;;;6.53;4.00;;;16.30;99.90;;;;;;6215428;23;20449;-93
2021/08/22 01:42:01;;;;;;;4.63;3.43;;;;;;;;;;6205947;23;20426;-93
2021/08/22 01:44:28;;;;;;;3.90;3.47;;;;;;;;;;6218081;23;20411;-94
2021/08/22 01:46:55;;;;;;;3.90;3.50;;;;;;;;;;6219158;23;20411;-92
2021/08/22 01:49:22;;;;;;;4.53;3.70;;;;;;;;;;6223689;23;20410;-92
2021/08/22 01:51:51;;;;;;;8.60;3.87;;;;;;;;;;6242557;23;20448;-92
2021/08/22 01:54:18;;;;;;;4.90;3.77;;;;;;;;;;6227233;23;20392;-92
2021/08/22 01:56:45;;;;;;;4.93;4.10;;;;;;;;;;6212645;23;20411;-93
2021/08/22 01:59:13;;;;;;;6.03;3.73;;;;;;;;;;6212570;23;20418;-91
2021/08/22 02:01:40;;;;;;;4.93;3.50;;;;;;;;;;6217657;23;20506;-93
2021/08/22 02:04:16;;;;;;;4.57;3.30;;;16.40;99.90;;;;;;6208889;23;20403;-92
2021/08/22 02:06:47;;;;;;;7.17;3.40;;;;;;;;;;6213514;23;20435;-93
2021/08/22 02:09:21;;;;;;;4.93;3.70;;;16.40;99.90;;;;;;6217580;23;20887;-94
2021/08/22 02:11:53;;;;;;;4.80;3.53;;;16.40;99.90;;;;;;6216846;23;20419;-93
2021/08/22 02:14:25;;;;;;;4.87;3.60;;;16.30;99.90;;;;;;6208779;23;20415;-93
2021/08/22 02:16:56;;;;;;;6.43;4.17;;;16.20;99.90;;;;;;6219342;23;20463;-92
2021/08/22 02:19:25;;;;;;;3.90;3.47;;;16.20;99.90;;;;;;6211015;23;20765;-94
2021/08/22 02:21:53;;;;;;;4.03;3.50;;;;;;;;;;6217696;23;20544;-91
2021/08/22 02:24:21;;;;;;;5.20;3.13;;;;;;;;;;6216921;23;20394;-91
2021/08/22 02:26:49;;;;;;;3.73;2.90;;;;;;;;;;6217147;23;20431;-94
2021/08/22 02:29:16;;;;;;;4.80;3.40;;;;;;;;;;6211638;23;20411;-92
2021/08/22 02:31:43;;;;;;;5.50;2.97;;;;;;;;;;6211140;23;20935;-91
2021/08/22 02:34:10;;;;;;;5.67;3.17;;;;;;;;;;6217475;23;20419;-91
2021/08/22 02:36:37;;;;;;;4.70;3.20;;;;;;;;;;6214555;23;20408;-92
2021/08/22 02:39:05;;;;;;;4.37;3.87;;;;;;;;;;6219242;23;20455;-92
2021/08/22 02:41:33;;;;;;;5.03;3.20;;;;;;;;;;6210963;23;20415;-93
2021/08/22 02:44:01;;;;;;;4.53;4.07;;;;;;;;;;6212746;23;20395;-93
2021/08/22 02:46:28;;;;;;;5.87;3.47;;;;;;;;;;6217057;23;20421;-92
2021/08/22 02:48:55;;;;;;;6.60;3.37;;;;;;;;;;6216764;23;20971;-92
2021/08/22 02:51:22;;;;;;;4.00;3.50;;;;;;;;;;6212433;23;20391;-93
2021/08/22 02:53:49;;;;;;;3.87;3.40;;;;;;;;;;6210630;23;20919;-94
2021/08/22 02:56:16;;;;;;;7.03;3.50;;;;;;;;;;6210797;23;20411;-92
2021/08/22 02:58:45;;;;;;;4.07;3.40;;;;;;;;;;6216896;23;20402;-92
2021/08/22 03:01:12;;;;;;;3.17;2.87;;;;;;;;;;6216525;23;20391;-92
2021/08/22 03:03:40;;;;;;;3.60;3.10;;;;;;;;;;6216450;23;20411;-93
2021/08/22 03:06:07;;;;;;;5.00;3.87;;;;;;;;;;6217064;23;20456;-93
2021/08/22 03:08:34;;;;;;;4.33;3.20;;;;;;;;;;6216923;23;20735;-93
2021/08/22 03:11:01;;;;;;;3.33;3.03;;;;;;;;;;6215442;23;20418;-92
2021/08/22 03:13:29;;;;;;;2.70;2.50;;;;;;;;;;6216953;23;20969;-94
2021/08/22 03:15:57;;;;;;;3.23;2.93;;;;;;;;;;6211998;23;20915;-93
2021/08/22 03:18:25;;;;;;;5.00;2.93;;;;;;;;;;6217088;23;20407;-93
2021/08/22 03:20:52;;;;;;;4.10;3.00;;;;;;;;;;6217089;23;20414;-92
2021/08/22 03:23:19;;;;;;;4.50;3.60;;;;;;;;;;6216860;23;20415;-92
2021/08/22 03:25:46;;;;;;;4.33;2.80;;;;;;;;;;6216159;23;20416;-92
2021/08/22 03:28:13;;;;;;;6.07;2.97;;;;;;;;;;6208256;23;20412;-92
2021/08/22 03:30:40;;;;;;;2.90;2.60;;;;;;;;;;6217341;23;20751;-93
2021/08/22 03:33:09;;;;;;;5.53;3.33;;;;;;;;;;6212873;23;20462;-93
2021/08/22 03:35:37;;;;;;;3.77;2.97;;;;;;;;;;6211043;23;20490;-93
2021/08/22 03:38:04;;;;;;;4.00;3.37;;;;;;;;;;6217635;23;20417;-93
2021/08/22 03:40:31;;;;;;;5.00;2.93;;;;;;;;;;6216887;23;20450;-93
2021/08/22 03:42:58;;;;;;;6.30;3.10;;;;;;;;;;6218648;23;20479;-94
2021/08/22 03:45:25;;;;;;;3.57;2.47;;;;;;;;;;6214610;23;20395;-92
2021/08/22 03:47:53;;;;;;;6.10;3.20;;;;;;;;;;6220856;23;20407;-92
2021/08/22 03:50:22;;;;;;;3.73;3.00;;;;;;;;;;6220665;23;20479;-93
2021/08/22 03:52:51;;;;;;;4.80;2.70;;;;;;;;;;6224083;23;20443;-92
2021/08/22 03:55:18;;;;;;;3.07;2.33;;;;;;;;;;6220429;23;20395;-92
2021/08/22 03:57:46;;;;;;;2.83;2.47;;;;;;;;;;6226546;23;20487;-93
2021/08/22 04:00:13;;;;;;;3.50;3.20;;;;;;;;;;6227266;23;20437;-91
2021/08/22 04:02:46;;;;;;;3.60;2.80;;;;;;;;;;6230445;23;20709;-92
2021/08/22 04:05:13;;;;;;;3.03;2.73;;;;;;;;;;6228484;23;20477;-92
2021/08/22 04:07:47;;;;;;;4.10;3.20;;;15.70;99.90;;;;;;6110285;23;20411;-93
2021/08/22 04:10:14;;;;;;;3.10;2.60;;;;;;;;;;6101369;23;20410;-93
2021/08/22 04:12:42;;;;;;;3.83;3.40;;;;;;;;;;6110181;23;20450;-92
2021/08/22 04:15:09;;;;;;;5.87;3.70;;;;;;;;;;6107768;23;20498;-92
2021/08/22 04:17:37;;;;;;;3.33;3.03;;;;;;;;;;6106244;23;20411;-91
2021/08/22 04:20:04;;;;;;;3.63;2.93;;;;;;;;;;6102015;23;20466;-91
2021/08/22 04:22:31;;;;;;;3.57;3.27;;;;;;;;;;6098249;23;20510;-94
2021/08/22 04:25:01;;;;;;;5.03;3.43;;;;;;;;;;6117265;23;20407;-93
2021/08/22 04:27:28;;;;;;;5.00;4.00;;;;;;;;;;6217783;23;20415;-92
2021/08/22 04:29:55;;;;;;;3.83;3.20;;;;;;;;;;6217697;23;20394;-93
2021/08/22 04:32:23;;;;;;;5.90;4.40;;;;;;;;;;6217508;23;20383;-92
2021/08/22 04:34:50;;;;;;;4.13;3.73;;;;;;;;;;6218951;23;20411;-93
2021/08/22 04:37:18;;;;;;;6.93;3.87;;;;;;;;;;6217495;23;20429;-92
2021/08/22 04:39:45;;;;;;;7.27;4.00;;;;;;;;;;6211826;23;20439;-91
2021/08/22 04:42:13;;;;;;;4.97;4.00;;;;;;;;;;6212733;23;20407;-93
2021/08/22 04:44:40;;;;;;;4.17;3.73;;;;;;;;;;6217516;23;20414;-93
2021/08/22 04:47:08;;;;;;;9.17;4.20;;;;;;;;;;6217431;23;20411;-93
2021/08/22 04:49:35;;;;;;;5.20;4.13;;;;;;;;;;6217660;23;20394;-91
2021/08/22 04:52:02;;;;;;;5.93;4.10;;;;;;;;;;6213028;23;20725;-92
2021/08/22 04:54:29;;;;;;;3.87;3.53;;;;;;;;;;6216037;23;20450;-91
2021/08/22 04:56:56;;;;;;;3.80;3.47;;;;;;;;;;6218332;23;20418;-92
2021/08/22 04:59:25;;;;;;;5.57;4.50;;;;;;;;;;6213539;23;20453;-94
2021/08/22 05:01:52;;;;;;;4.70;4.30;;;;;;;;;;6218470;23;20396;-93
2021/08/22 05:04:19;;;;;;;6.47;4.47;;;;;;;;;;6217096;23;20398;-92
2021/08/22 05:06:46;;;;;;;4.13;3.70;;;;;;;;;;6212356;23;20418;-91
2021/08/22 05:09:13;;;;;;;4.77;3.60;;;;;;;;;;6217210;23;20411;-93
2021/08/22 05:11:41;;;;;;;7.57;3.80;;;;;;;;;;6216194;23;20396;-93
2021/08/22 05:14:08;;;;;;;3.97;3.57;;;;;;;;;;6216807;23;20427;-93
2021/08/22 05:16:36;;;;;;;3.73;3.40;;;;;;;;;;6216867;23;20910;-91
2021/08/22 05:19:03;;;;;;;4.50;3.20;;;;;;;;;;6212457;23;20486;-92
2021/08/22 05:21:30;;;;;;;3.10;2.80;;;;;;;;;;6216682;23;20423;-93
2021/08/22 05:23:58;;;;;;;4.17;3.33;;;;;;;;;;6216792;23;20411;-91
2021/08/22 05:26:26;;;;;;;4.20;3.80;;;;;;;;;;6211321;23;20412;-91
2021/08/22 05:28:56;;;;;;;3.13;2.77;;;16.30;99.90;;;;;;6212071;23;20907;-91
2021/08/22 05:31:23;;;;;;;4.73;3.70;;;;;;;;;;6211161;23;20888;-92
2021/08/22 05:33:52;;;;;;;6.20;4.13;;;;;;;;;;6216473;23;20450;-90
2021/08/22 05:36:20;;;;;;;5.00;3.50;;;16.40;99.90;;;;;;6217156;23;20406;-92
2021/08/22 05:38:47;;;;;;;4.80;4.10;;;;;;;;;;6212546;23;20388;-92
2021/08/22 05:41:15;;;;;;;4.47;3.47;;;;;;;;;;6210582;23;20511;-92
2021/08/22 05:43:42;;;;;;;4.33;3.90;;;;;;;;;;6212223;23;20403;-92
2021/08/22 05:46:09;;;;;;;6.10;4.10;;;;;;;;;;6216856;23;20407;-91
2021/08/22 05:48:37;;;;;;;4.83;4.43;;;;;;;;;;6212133;23;20973;-92
2021/08/22 05:51:05;;;;;;;3.70;2.83;;;;;;;;;;6216931;23;20388;-92
2021/08/22 05:53:32;;;;;;;4.30;3.90;;;;;;;;;;6216363;23;20458;-91
2021/08/22 05:55:59;;;;;;;4.60;3.80;;;;;;;;;;6215739;23;20888;-93
2021/08/22 05:58:27;;;;;;;4.67;4.27;;;;;;;;;;6210799;23;20399;-92
2021/08/22 06:00:54;;;;;;;6.00;4.70;;;;;;;;;;6204473;23;20415;-91
2021/08/22 06:03:21;;;;;;;6.60;3.90;;;;;;;;;;6216947;23;20395;-91
2021/08/22 06:05:50;;;;;;;4.50;4.10;;;;;;;;;;6216591;23;20424;-91
2021/08/22 06:08:18;;;;;;;6.43;4.43;;;;;;;;;;6216208;23;20415;-90
2021/08/22 06:10:45;;;;;;;4.43;4.03;;;;;;;;;;6210352;23;20391;-92
2021/08/22 06:13:12;;;;;;;5.33;4.80;;;;;;;;;;6216175;23;20782;-92
2021/08/22 06:15:40;;;;;;;5.10;4.53;;;;;;;;;;6211500;23;20500;-93
2021/08/22 06:18:07;;;;;;;5.63;4.50;;;;;;;;;;6216496;23;20406;-91
2021/08/22 06:20:34;;;;;;;5.60;4.33;;;;;;;;;;6216707;23;20392;-92
2021/08/22 06:23:01;;;;;;;4.67;4.07;;;;;;;;;;6216075;23;20882;-93
2021/08/22 06:25:29;;;;;;;4.47;4.07;;;17.40;99.90;;;;;;6209236;23;20387;-93
2021/08/22 06:27:56;;;;;;;5.20;3.93;;;;;;;;;;6211404;23;20418;-94
2021/08/22 06:30:23;;;;;;;7.03;3.90;;;;;;;;;;6211401;23;20438;-91
2021/08/22 06:32:50;;;;;;;4.43;4.03;;;;;;;;;;6210083;23;20400;-92
2021/08/22 06:35:17;;;;;;;5.03;4.60;;;;;;;;;;6215812;23;20477;-92
2021/08/22 06:37:44;;;;;;;4.60;4.20;;;;;;;;;;6216239;23;20392;-91
2021/08/22 06:40:12;;;;;;;5.00;3.93;;;;;;;;;;6214300;23;20447;-92
2021/08/22 06:42:41;;;;;;;5.80;4.73;;;;;;;;;;6216347;23;20400;-91
2021/08/22 06:45:08;;;;;;;3.70;3.30;;;17.80;99.90;;;;;;6217115;23;20395;-92
2021/08/22 06:47:36;;;;;;;4.83;4.33;;;;;;;;;;6212250;23;20470;-91
2021/08/22 06:50:03;;;;;;;5.00;4.50;;;;;;;;;;6217233;23;20418;-90
2021/08/22 06:52:30;;;;;;;10.00;4.70;;;;;;;;;;6216825;23;20395;-91
2021/08/22 06:54:57;;;;;;;5.70;4.60;;;;;;;;;;6215064;23;20451;-94
2021/08/22 06:57:24;;;;;;;3.80;3.40;;;;;;;;;;6216679;23;20434;-91
2021/08/22 06:59:52;;;;;;;4.87;4.20;;;;;;;;;;6210700;23;20509;-90
2021/08/22 07:02:20;;;;;;;5.77;4.43;;;;;;;;;;6216913;23;20392;-91
2021/08/22 07:04:47;;;;;;;4.63;4.13;;;;;;;;;;6216186;23;20737;-93
2021/08/22 07:07:14;;;;;;;5.70;3.83;;;;;;;;;;6210552;23;20392;-91
2021/08/22 07:09:41;;;;;;;4.70;4.30;;;;;;;;;;6209806;23;20415;-90
2021/08/22 07:12:09;;;;;;;4.80;4.30;;;;;;;;;;6211710;23;20400;-92
2021/08/22 07:14:36;;;;;;;4.00;3.17;;;;;;;;;;6217255;23;20798;-91
2021/08/22 07:17:04;;;;;;;5.90;4.50;;;;;;;;;;6214944;23;20411;-92
2021/08/22 07:19:32;;;;;;;5.47;4.50;;;;;;;;;;6216221;23;20406;-92
2021/08/22 07:21:59;;;;;;;3.00;2.70;;;;;;;;;;6213867;23;20387;-93
2021/08/22 07:24:26;;;;;;;6.37;5.17;;;;;;;;;;6216538;23;20426;-92
2021/08/22 07:26:53;;;;;;;4.97;4.43;;;;;;;;;;6218091;23;20880;-92
2021/08/22 07:29:20;;;;;;;5.83;4.40;;;;;;;;;;6217785;23;20398;-91
2021/08/22 07:31:47;;;;;;;4.67;4.27;;;;;;;;;;6213325;23;20411;-90
2021/08/22 07:34:16;;;;;;;4.27;3.87;;;;;;;;;;6217977;23;20438;-91
2021/08/22 07:36:43;;;;;;;4.73;4.30;;;;;;;;;;6213196;23;20430;-91
2021/08/22 07:39:11;;;;;;;6.07;4.27;;;;;;;;;;6212984;23;20412;-92
2021/08/22 07:41:38;;;;;;;5.20;4.30;;;;;;;;;;6205329;23;20430;-91
2021/08/22 07:44:06;;;;;;;5.83;4.70;;;;;;;;;;6218324;23;20411;-91
2021/08/22 07:46:34;;;;;;;4.70;4.10;;;;;;;;;;6217962;23;20863;-93
2021/08/22 07:49:01;;;;;;;4.33;3.50;;;;;;;;;;6218701;23;20415;-95
2021/08/22 07:51:29;;;;;;;4.20;3.50;;;;;;;;;;6217684;23;20902;-90
2021/08/22 07:53:58;;;;;;;4.73;4.30;;;;;;;;;;6217820;23;20450;-92
2021/08/22 07:56:25;;;;;;;6.90;3.70;;;;;;;;;;6211736;23;20406;-90
2021/08/22 07:58:52;;;;;;;6.80;4.27;;;;;;;;;;6212800;23;20411;-91
2021/08/22 08:01:19;;;;;;;5.13;4.20;;;;;;;;;;6217458;23;20403;-90
2021/08/22 08:03:46;;;;;;;3.83;3.20;;;;;;;;;;6217132;23;20443;-91
2021/08/22 08:06:13;;;;;;;4.43;4.00;;;;;;;;;;6217212;23;20390;-91
2021/08/22 08:08:42;;;;;;;4.87;4.40;;;;;;;;;;6217330;23;20763;-89
2021/08/22 08:11:09;;;;;;;4.63;4.20;;;;;;;;;;6216222;23;20395;-90
2021/08/22 08:13:36;;;;;;;4.93;4.30;;;;;;;;;;6212429;23;20415;-91
2021/08/22 08:16:03;;;;;;;4.40;4.00;;;;;;;;;;6212386;23;20456;-90
2021/08/22 08:18:30;;;;;;;5.07;4.57;;;;;;;;;;6216940;23;20801;-93
2021/08/22 08:20:58;;;;;;;6.53;4.90;;;;;;;;;;6216951;23;20391;-89
2021/08/22 08:23:25;;;;;;;6.27;4.10;;;;;;;;;;6217092;23;20406;-89
2021/08/22 08:25:53;;;;;;;5.13;4.20;;;19.70;99.90;;;;;;6215435;23;20406;-89
2021/08/22 08:28:21;;;;;;;4.03;3.63;;;;;;;;;;6217759;23;20388;-90
2021/08/22 08:30:48;;;;;;;4.93;4.53;;;;;;;;;;6217388;23;20402;-90
2021/08/22 08:33:15;;;;;;;8.20;5.00;;;;;;;;;;6212611;23;20400;-90
2021/08/22 08:35:44;;;;;;;4.10;3.80;;;20.30;99.90;;;;;;6216947;23;20435;-91
2021/08/22 08:38:12;;;;;;;6.27;4.23;;;;;;;;;;6141369;23;20422;-90
2021/08/22 08:40:41;;;;;;;4.40;3.67;;;19.80;99.90;;;;;;6215826;23;20443;-90
2021/08/22 08:43:11;;;;;;;5.10;4.27;;;20.00;99.90;;;;;;6136118;23;20913;-89
2021/08/22 08:45:44;;;;;;;4.97;4.07;;;20.10;99.90;;;;;;6217247;23;20879;-90
2021/08/22 08:48:11;;;;;;;5.10;4.43;;;;;;;;;;6211252;23;20392;-90
2021/08/22 08:50:39;;;;;;;4.03;3.57;;;;;;;;;;6210826;23;20418;-89
2021/08/22 08:53:06;;;;;;;4.40;4.00;;;;;;;;;;6212074;23;20411;-91
2021/08/22 08:55:34;;;;;;;5.97;4.13;;;20.80;99.90;;;;;;6214921;23;20734;-90
2021/08/22 08:58:01;;;;;;;4.33;3.90;;;;;;;;;;6216444;23;20398;-89
2021/08/22 09:00:31;;;;;;;4.43;4.03;;;20.30;99.90;;;;;;6216522;23;20422;-92
2021/08/22 09:02:59;;;;;;;4.30;3.70;;;;;;;;;;6095160;23;20421;-89
2021/08/22 09:05:55;;;;;;;8.43;4.60;;;20.10;99.90;;;;;;6095299;23;20421;-89
2021/08/22 09:08:57;;;;;;;4.27;3.90;;;20.10;99.90;;;;;;6047147;23;20407;-89
2021/08/22 09:12:00;;;;;;;5.33;4.83;;;19.90;99.90;;;;;;6093744;23;20720;-90
2021/08/22 09:15:06;;;;;;;7.13;4.50;;;19.90;99.90;;;;;;6095217;23;20537;-91
2021/08/22 09:18:10;;;;;;;5.30;3.90;;;19.80;99.90;;;;;;6062850;23;20415;-89
2021/08/22 09:21:14;;;;;;;5.20;4.50;;;19.80;99.90;;;;;;6131094;23;20914;-90
2021/08/22 09:24:18;;;;;;;5.53;5.00;;;20.10;99.90;;;;;;6216213;23;20711;-89
2021/08/22 09:27:24;;;;;;;4.47;4.07;;;20.10;99.90;;;;;;6216430;23;20391;-89
2021/08/22 09:30:28;;;;;;;6.63;4.93;;;20.50;99.90;;;;;;6217236;23;20403;-90
2021/08/22 09:33:49;;;;;;;5.50;4.60;;;21.10;99.90;;;;;;6213007;23;20407;-89
2021/08/22 09:36:52;;;;;;;6.60;4.30;;;21.00;99.90;;;;;;6163823;23;20454;-89
2021/08/22 09:40:08;;;;;;;7.53;4.00;;;20.90;99.90;;;;;;6212639;23;20462;-89
2021/08/22 09:43:14;;;;;;;6.17;4.50;;;20.50;99.90;;;;;;6095313;23;20407;-89
2021/08/22 09:46:11;;;;;;;6.80;4.60;;;20.50;99.90;;;;;;6216159;23;20391;-89
2021/08/22 09:49:30;;;;;;;3.97;3.60;;;20.50;99.90;;;;;;6110478;23;20433;-90
2021/08/22 09:52:36;;;;;;;5.60;4.80;;;20.70;99.90;;;;;;6216122;23;20403;-89
2021/08/22 09:55:47;;;;;;;6.80;4.47;;;20.90;99.90;;;;;;6214922;23;20447;-89
2021/08/22 09:58:55;;;;;;;6.03;4.60;;;20.50;99.90;;;;;;6210915;23;20406;-90
2021/08/22 10:01:46;;;;;;;5.27;4.77;;;20.60;99.90;;;;;;6156869;23;20404;-89
2021/08/22 10:04:49;;;;;;;5.07;4.43;;;20.30;99.90;;;;;;6220114;23;20431;-90
2021/08/22 10:07:31;;;;;;;5.60;4.50;;;20.30;99.90;;;;;;6221760;23;20705;-90
2021/08/22 10:10:00;;;;;;;4.93;4.53;;;20.10;99.90;;;;;;6141532;23;20414;-91
2021/08/22 10:12:28;;;;;;;7.10;5.13;;;20.10;99.90;;;;;;6143565;23;20411;-90
2021/08/22 10:14:55;;;;;;;4.90;4.40;;;;;;;;;;6138718;23;20443;-89
2021/08/22 10:17:24;;;;;;;6.40;4.70;;;;;;;;;;6219995;23;20388;-90
2021/08/22 10:19:51;;;;;;;7.60;4.57;;;;;;;;;;6215385;23;20788;-89
2021/08/22 10:22:19;;;;;;;4.80;4.03;;;;;;;;;;6217352;23;20406;-88
2021/08/22 10:24:56;;;;;;;6.67;5.33;;;19.80;99.90;;;;;;6216954;23;20407;-88
2021/08/22 10:27:47;;;;;;;5.17;4.67;;;19.80;99.90;;;;;;6217827;23;20438;-88
2021/08/22 10:30:19;;;;;;;5.73;5.17;;;19.70;99.90;;;;;;6216683;23;20716;-89
2021/08/22 10:33:07;;;;;;;5.50;4.80;;;19.80;99.90;;;;;;6094456;23;20411;-89
2021/08/22 10:35:34;;;;;;;5.57;4.83;;;;;;;;;;6047188;23;21006;-87
2021/08/22 10:38:23;;;;;;;7.13;5.23;;;19.60;99.90;;;;;;6095110;23;20417;-89
2021/08/22 10:40:51;;;;;;;6.67;4.73;;;;;;;;;;6094173;23;20443;-90
2021/08/22 10:43:41;;;;;;;3.53;3.20;;;19.80;99.90;;;;;;6095420;23;20407;-90
2021/08/22 10:46:09;;;;;;;7.60;4.90;;;;;;;;;;6095243;23;20478;-90
2021/08/22 10:48:55;;;;;;;5.20;4.70;;;19.70;99.90;;;;;;6094296;23;20418;-89
2021/08/22 10:51:23;;;;;;;6.33;5.70;;;19.80;99.90;;;;;;6111487;23;20414;-88
2021/08/22 10:53:52;;;;;;;5.17;4.67;;;;;;;;;;6215603;23;20388;-89
2021/08/22 10:56:41;;;;;;;5.20;4.70;;;20.00;99.90;;;;;;6214460;23;20505;-90
2021/08/22 10:59:10;;;;;;;6.57;4.57;;;20.00;99.90;;;;;;6215838;23;20391;-89
2021/08/22 11:01:42;;;;;;;5.97;5.43;;;20.00;99.90;;;;;;6210952;23;20718;-90
2021/08/22 11:04:11;;;;;;;6.00;5.20;;;19.90;99.90;;;;;;6139152;23;20935;-90
2021/08/22 11:06:39;;;;;;;5.53;4.90;;;;;;;;;;6215304;23;20426;-90
2021/08/22 11:09:06;;;;;;;5.43;4.93;;;;;;;;;;6216374;23;20400;-89
2021/08/22 11:11:33;;;;;;;5.60;5.00;;;;;;;;;;6215009;23;20392;-89
2021/08/22 11:14:00;;;;;;;5.73;5.13;;;;;;;;;;6210151;23;20392;-89
2021/08/22 11:16:53;;;;;;;5.37;4.87;;;20.10;99.90;;;;;;6215354;23;20805;-90
2021/08/22 11:19:23;;;;;;;5.70;5.10;;;20.00;99.90;;;;;;6209542;23;20391;-89
2021/08/22 11:21:50;;;;;;;6.03;5.43;;;;;;;;;;6215585;23;20442;-88
2021/08/22 11:24:18;;;;;;;6.50;5.60;;;;;;;;;;6210879;23;20506;-89
2021/08/22 11:26:46;;;;;;;6.30;5.60;;;;;;;;;;6209826;23;20396;-89
2021/08/22 11:29:13;;;;;;;4.20;3.80;;;;;;;;;;6215424;23;20395;-89
2021/08/22 11:31:40;;;;;;;3.27;3.00;;;;;;;;;;6209574;23;20391;-90
2021/08/22 11:34:14;;;;;;;4.33;3.43;;;19.70;99.90;;;;;;6216663;23;20458;-89
2021/08/22 11:36:41;;;;;;;3.07;2.77;;;19.80;99.90;;;;;;6216415;23;20519;-91
2021/08/22 11:39:10;;;;;;;2.37;2.17;;;19.50;99.90;;;;;;6207169;23;20454;-89
2021/08/22 11:41:38;;;;;;;4.03;2.30;;;19.30;99.90;;;;;;6207837;23;20387;-91
2021/08/22 11:44:05;;;;;;;2.20;2.00;;;;;;;;;;6215751;23;20392;-89
2021/08/22 11:46:32;;;;;;;2.60;2.10;;;;;;;;;;6216488;23;20406;-89
2021/08/22 11:49:00;;;;;;;2.50;1.80;;;;;;;;;;6211272;23;20399;-90
2021/08/22 11:51:29;;;;;;;2.33;2.13;;;18.70;99.90;;;;;;6215980;23;20724;-88
2021/08/22 11:53:57;;;;;;;2.07;1.87;;;;;;;;;;6206775;23;20396;-88
2021/08/22 11:56:24;;;;;;;1.97;1.77;;;;;;;;;;6214290;23;20941;-90
2021/08/22 11:58:51;;;;;;;2.23;2.00;;;;;;;;;;6216862;23;20395;-90
2021/08/22 12:01:20;;;;;;;2.23;2.03;;;;;;;;;;6209465;23;20402;-89
2021/08/22 12:03:58;;;;;;;2.47;2.27;;;18.20;99.90;;;;;;6218650;23;20502;-90
2021/08/22 12:06:26;;;;;;;3.50;2.10;;;;;;;;;;6219557;23;20399;-91
2021/08/22 12:08:54;;;;;;;2.13;1.93;;;18.00;99.90;;;;;;6213652;23;20418;-91
2021/08/22 12:11:23;;;;;;;2.53;2.33;;;;;;;;;;6209818;23;20384;-90
2021/08/22 12:13:51;;;;;;;2.10;1.90;;;18.00;99.90;;;;;;6216720;23;20411;-89
2021/08/22 12:16:27;;;;;;;2.07;1.87;;;17.90;99.90;;;;;;6216501;23;20446;-90
2021/08/22 12:18:54;;;;;;;2.80;2.27;;;;;;;;;;6212777;23;20413;-91
2021/08/22 12:21:22;;;;;;;2.83;2.10;;;17.80;99.90;;;;;;6217674;23;20750;-90
2021/08/22 12:23:51;;;;;;;2.40;2.20;;;17.70;99.90;;;;;;6212684;23;20412;-90
2021/08/22 12:26:21;;;;;;;2.40;2.20;;;17.70;99.90;;;;;;6139742;23;20416;-91
2021/08/22 12:28:48;;;;;;;2.13;1.93;;;;;;;;;;6211513;23;20456;-92
2021/08/22 12:31:16;;;;;;;2.30;2.10;;;17.50;99.90;;;;;;6212586;23;20426;-92
2021/08/22 12:33:45;;;;;;;2.63;1.80;;;17.60;99.90;;;;;;6216917;23;20415;-91
2021/08/22 12:36:14;;;;;;;3.57;2.47;;;17.40;99.90;;;;;;6210841;23;20435;-93
2021/08/22 12:38:43;;;;;;;3.07;2.00;;;17.40;99.90;;;;;;6217308;23;20478;-89
2021/08/22 12:41:38;;;;;;;2.50;1.53;;;17.50;99.90;;;;;;6215070;23;20946;-90
2021/08/22 12:44:06;;;;;;;2.00;1.80;;;17.50;99.90;;;;;;6216672;23;20410;-90
2021/08/22 12:46:35;;;;;;;2.03;1.53;;;17.60;99.90;;;;;;6210811;23;20503;-90
2021/08/22 12:49:02;;;;;;;1.73;1.60;;;;;;;;;;6217220;23;20387;-89
2021/08/22 12:51:29;;;;;;;1.57;1.47;;;;;;;;;;6211983;23;20407;-91
2021/08/22 12:53:57;;;;;;;1.60;1.30;;;17.40;99.90;;;;;;6217988;23;20402;-91
2021/08/22 12:56:25;;;;;;;2.03;1.67;;;;;;;;;;6211761;23;20458;-91
2021/08/22 12:58:56;;;;;;;1.83;1.73;;;17.60;99.90;;;;;;6219379;23;20426;-91
2021/08/22 13:01:23;;;;;;;2.07;1.87;;;;;;;;;;6209045;23;20407;-90
2021/08/22 13:03:52;;;;;;;1.87;1.67;;;17.70;99.90;;;;;;6218410;23;20407;-89
2021/08/22 13:06:20;;;;;;;3.87;2.03;;;;;;;;;;6218252;23;20422;-91
2021/08/22 13:08:47;;;;;;;2.90;2.00;;;;;;;;;;6214818;23;20666;-91
2021/08/22 13:11:14;;;;;;;2.27;2.07;;;;;;;;;;6219372;23;20415;-91
2021/08/22 13:13:41;;;;;;;3.93;2.00;;;;;;;;;;6219749;23;20439;-92
2021/08/22 13:16:10;;;;;;;1.60;1.50;;;18.20;99.90;;;;;;6219552;23;20455;-92
2021/08/22 13:18:37;;;;;;;2.47;1.87;;;;;;;;;;6214335;23;20407;-91
2021/08/22 13:21:07;;;;;;;2.43;1.90;;;18.00;99.90;;;;;;6213377;23;20748;-90
2021/08/22 13:23:35;;;;;;;2.40;1.90;;;18.00;99.90;;;;;;6214287;23;20442;-91
2021/08/22 13:26:03;;;;;;;2.43;2.17;;;17.90;99.90;;;;;;6214130;23;20446;-92
2021/08/22 13:28:31;;;;;;;2.40;2.17;;;;;;;;;;6219520;23;20387;-91
2021/08/22 13:30:58;;;;;;;3.00;2.50;;;;;;;;;;6219063;23;20422;-92
2021/08/22 13:33:26;;;;;;;1.90;1.80;;;;;;;;;;6213705;23;20914;-92
2021/08/22 13:35:54;;;;;;;2.20;1.80;;;;;;;;;;6218692;23;20457;-91
2021/08/22 13:38:21;;;;;;;2.67;2.23;;;;;;;;;;6218530;23;20407;-91
2021/08/22 13:40:48;;;;;;;1.90;1.70;;;;;;;;;;6211953;23;20439;-91
2021/08/22 13:43:16;;;;;;;2.83;2.40;;;;;;;;;;6213421;23;20388;-91
2021/08/22 13:45:45;;;;;;;4.07;2.57;;;17.10;99.90;;;;;;6218094;23;20879;-91
2021/08/22 13:48:12;;;;;;;3.27;1.87;;;;;;;;;;6228051;23;20473;-91
2021/08/22 13:50:41;;;;;;;3.03;1.60;;;;;;;;;;6222900;23;20458;-90
2021/08/22 13:53:09;;;;;;;1.43;1.33;;;16.70;99.90;;;;;;6228379;23;20417;-91
2021/08/22 13:55:37;;;;;;;2.50;1.90;;;16.60;99.90;;;;;;6219697;23;20447;-92
2021/08/22 13:58:08;;;;;;;2.50;1.80;;;16.60;99.90;;;;;;6230043;23;20415;-90
2021/08/22 14:00:36;;;;;;;2.20;2.00;;;16.60;99.90;;;;;;6201828;23;20407;-92
2021/08/22 14:03:05;;;;;;;3.07;2.40;;;;;;;;;;6230171;23;20431;-91
2021/08/22 14:05:32;;;;;;;2.17;1.87;;;;;;;;;;6230174;23;20407;-92
2021/08/22 14:08:04;;;;;;;2.10;1.93;;;16.90;99.90;;;;;;6229235;22;20504;-90
2021/08/22 14:10:32;;;;;;;3.63;1.70;;;;;;;;;;6228038;23;20414;-91
2021/08/22 14:12:59;;;;;;;3.30;1.90;;;;;;;;;;6228830;23;20395;-90
2021/08/22 14:15:26;;;;;;;4.00;1.40;;;;;;;;;;6226878;23;20407;-92
2021/08/22 14:17:56;;;;;;;2.30;2.00;;;;;;;;;;6223210;23;20395;-92
2021/08/22 14:20:23;;;;;;;1.80;1.47;;;;;;;;;;6222059;23;20398;-91
2021/08/22 14:22:52;;;;;;;2.30;2.00;;;;;;;;;;6218958;23;20407;-92
2021/08/22 14:25:21;;;;;;;1.97;1.77;;;;;;;;;;6218557;23;20411;-93